createdAt,value
2023-03-26T00:01:34.034Z,9.40
2023-03-26T00:04:01.441Z,9.30
2023-03-26T00:06:31.039Z,9.30
2023-03-26T00:08:59.038Z,9.30
2023-03-26T00:11:27.858Z,9.30
2023-03-26T00:13:58.384Z,9.30
2023-03-26T00:16:28.343Z,9.30
2023-03-26T00:18:59.977Z,9.30
2023-03-26T00:21:30.402Z,9.30
2023-03-26T00:24:04.808Z,9.30
2023-03-26T00:26:41.406Z,9.30
2023-03-26T00:29:13.930Z,9.40
2023-03-26T00:31:41.436Z,9.30
2023-03-26T00:34:10.573Z,9.30
2023-03-26T00:36:37.879Z,9.30
2023-03-26T00:39:08.033Z,9.30
2023-03-26T00:41:43.791Z,9.20
2023-03-26T00:44:14.523Z,9.30
2023-03-26T00:46:44.870Z,9.20
2023-03-26T00:49:14.967Z,9.30
2023-03-26T00:51:42.969Z,9.40
2023-03-26T00:54:11.094Z,9.30
2023-03-26T00:56:39.045Z,9.30
2023-03-26T00:59:06.581Z,9.40
2023-03-26T01:01:33.888Z,9.30
2023-03-26T01:04:32.240Z,9.30
2023-03-26T01:07:07.859Z,9.30
2023-03-26T01:09:42.982Z,9.30
2023-03-26T01:12:15.796Z,9.30
2023-03-26T01:14:44.948Z,9.20
2023-03-26T01:17:12.991Z,9.30
2023-03-26T01:19:52.273Z,9.20
2023-03-26T01:22:22.354Z,9.30
2023-03-26T01:24:54.270Z,9.30
2023-03-26T01:27:28.902Z,9.30
2023-03-26T01:30:01.582Z,9.30
2023-03-26T01:32:58.273Z,9.30
2023-03-26T01:35:40.692Z,9.30
2023-03-26T01:38:35.555Z,9.30
2023-03-26T01:41:15.551Z,9.30
2023-03-26T01:44:04.445Z,9.30
2023-03-26T01:46:36.613Z,9.20
2023-03-26T01:49:13.753Z,9.20
2023-03-26T01:51:42.750Z,9.20
2023-03-26T01:54:27.402Z,9.10
2023-03-26T01:57:03.815Z,9.10
2023-03-26T01:59:46.459Z,9.10
2023-03-26T02:02:15.622Z,9.10
2023-03-26T02:05:04.007Z,9.10
2023-03-26T02:07:42.657Z,9.10
2023-03-26T02:10:17.806Z,9.10
2023-03-26T02:12:45.687Z,9.10
2023-03-26T02:15:13.700Z,9.00
2023-03-26T02:17:41.124Z,9.10
2023-03-26T02:20:11.965Z,9.00
2023-03-26T02:22:46.169Z,9.00
2023-03-26T02:25:16.999Z,8.90
2023-03-26T02:27:45.282Z,9.10
2023-03-26T02:30:17.881Z,9.10
2023-03-26T02:32:45.445Z,9.10
2023-03-26T02:35:13.378Z,9.10
2023-03-26T02:37:42.347Z,9.10
2023-03-26T02:40:11.970Z,9.10
2023-03-26T02:42:40.417Z,9.10
2023-03-26T02:45:11.313Z,9.20
2023-03-26T02:47:41.622Z,9.10
2023-03-26T02:50:09.737Z,9.10
2023-03-26T02:52:37.590Z,9.00
2023-03-26T02:55:05.461Z,9.00
2023-03-26T02:57:32.784Z,9.00
2023-03-26T03:00:02.547Z,9.00
2023-03-26T03:02:30.703Z,9.00
2023-03-26T03:05:01.838Z,8.90
2023-03-26T03:07:29.797Z,9.00
2023-03-26T03:10:02.717Z,9.00
2023-03-26T03:12:30.389Z,8.90
2023-03-26T03:14:57.776Z,9.10
2023-03-26T03:17:25.028Z,9.00
2023-03-26T03:19:52.955Z,9.10
2023-03-26T03:22:20.686Z,9.10
2023-03-26T03:24:48.008Z,9.10
2023-03-26T03:27:15.884Z,9.10
2023-03-26T03:29:46.002Z,9.10
2023-03-26T03:32:13.317Z,9.00
2023-03-26T03:34:43.057Z,9.10
2023-03-26T03:37:11.044Z,9.00
2023-03-26T03:39:38.143Z,9.00
2023-03-26T03:42:05.608Z,8.90
2023-03-26T03:44:33.117Z,8.80
2023-03-26T03:47:00.369Z,8.80
2023-03-26T03:49:28.064Z,8.80
2023-03-26T03:51:55.766Z,8.80
2023-03-26T03:54:23.140Z,8.80
2023-03-26T03:56:50.441Z,8.80
2023-03-26T03:59:21.119Z,8.80
2023-03-26T04:01:51.294Z,8.80
2023-03-26T04:04:19.176Z,8.80
2023-03-26T04:06:46.410Z,8.90
2023-03-26T04:09:13.821Z,8.80
2023-03-26T04:11:41.206Z,8.90
2023-03-26T04:14:08.644Z,8.80
2023-03-26T04:16:35.744Z,9.00
2023-03-26T04:19:04.438Z,8.90
2023-03-26T04:21:32.219Z,8.90
2023-03-26T04:24:02.075Z,8.90
2023-03-26T04:26:30.947Z,8.90
2023-03-26T04:29:04.775Z,8.80
2023-03-26T04:31:34.248Z,8.80
2023-03-26T04:34:07.856Z,8.70
2023-03-26T04:36:35.734Z,8.70
2023-03-26T04:39:05.227Z,8.60
2023-03-26T04:41:32.819Z,8.70
2023-03-26T04:44:02.789Z,8.80
2023-03-26T04:46:33.864Z,8.80
2023-03-26T04:49:02.014Z,8.80
2023-03-26T04:51:38.294Z,8.80
2023-03-26T04:54:08.112Z,8.70
2023-03-26T04:56:58.726Z,8.90
2023-03-26T04:59:30.482Z,8.80
2023-03-26T05:02:00.202Z,8.80
2023-03-26T05:04:29.663Z,8.80
2023-03-26T05:07:01.321Z,8.90
2023-03-26T05:09:28.766Z,8.90
2023-03-26T05:11:57.473Z,9.10
2023-03-26T05:14:24.867Z,9.10
2023-03-26T05:16:53.479Z,9.30
2023-03-26T05:19:21.516Z,9.30
2023-03-26T05:21:49.771Z,9.30
2023-03-26T05:24:17.154Z,9.50
2023-03-26T05:26:46.451Z,9.50
2023-03-26T05:29:18.687Z,9.50
2023-03-26T05:31:48.871Z,9.50
2023-03-26T05:34:16.018Z,9.50
2023-03-26T05:36:46.789Z,9.60
2023-03-26T05:39:16.959Z,9.50
2023-03-26T05:41:44.183Z,9.50
2023-03-26T05:44:11.828Z,9.60
2023-03-26T05:46:39.197Z,9.60
2023-03-26T05:49:06.408Z,9.60
2023-03-26T05:51:37.061Z,9.60
2023-03-26T05:54:06.430Z,9.70
2023-03-26T05:56:34.408Z,9.80
2023-03-26T05:59:02.313Z,10.00
2023-03-26T06:01:29.555Z,10.10
2023-03-26T06:03:59.142Z,10.20
2023-03-26T06:06:26.620Z,10.30
2023-03-26T06:09:02.345Z,10.50
2023-03-26T06:11:32.319Z,10.70
2023-03-26T06:14:00.633Z,10.70
2023-03-26T06:16:28.589Z,10.80
2023-03-26T06:18:57.964Z,10.80
2023-03-26T06:21:26.478Z,10.80
2023-03-26T06:23:54.200Z,10.80
2023-03-26T06:26:21.819Z,10.70
2023-03-26T06:28:51.354Z,10.70
2023-03-26T06:31:19.492Z,10.70
2023-03-26T06:33:47.177Z,10.80
2023-03-26T06:36:14.572Z,10.70
2023-03-26T06:38:41.933Z,10.60
2023-03-26T06:41:09.473Z,10.60
2023-03-26T06:43:37.589Z,10.70
2023-03-26T06:46:05.002Z,10.70
2023-03-26T06:48:32.719Z,10.70
2023-03-26T06:50:59.866Z,10.50
2023-03-26T06:53:27.677Z,10.50
2023-03-26T06:55:55.011Z,10.30
2023-03-26T06:58:23.582Z,10.30
2023-03-26T07:00:54.661Z,10.30
2023-03-26T07:03:23.767Z,10.20
2023-03-26T07:05:51.059Z,10.10
2023-03-26T07:08:21.246Z,10.30
2023-03-26T07:10:50.441Z,10.30
2023-03-26T07:13:21.131Z,10.30
2023-03-26T07:15:49.577Z,10.30
2023-03-26T07:18:17.318Z,10.50
2023-03-26T07:20:46.488Z,10.50
2023-03-26T07:23:16.150Z,10.60
2023-03-26T07:25:44.161Z,10.60
2023-03-26T07:28:26.212Z,10.60
2023-03-26T07:31:18.192Z,10.60
2023-03-26T07:33:56.331Z,10.60
2023-03-26T07:36:26.743Z,10.60
2023-03-26T07:39:08.770Z,10.50
2023-03-26T07:41:41.605Z,10.60
2023-03-26T07:44:11.675Z,10.40
2023-03-26T07:46:39.612Z,10.50
2023-03-26T07:49:09.825Z,10.80
2023-03-26T07:51:38.016Z,11.20
2023-03-26T07:54:05.716Z,11.70
2023-03-26T07:56:57.961Z,12.20
2023-03-26T07:59:38.588Z,12.60
2023-03-26T08:02:43.662Z,13.00
2023-03-26T08:05:37.853Z,13.30
2023-03-26T08:08:05.847Z,13.50
2023-03-26T08:10:57.907Z,13.50
2023-03-26T08:13:45.561Z,13.60
2023-03-26T08:16:16.872Z,13.50
2023-03-26T08:18:56.170Z,13.30
2023-03-26T08:21:25.909Z,13.20
2023-03-26T08:24:42.939Z,13.20
2023-03-26T08:27:54.922Z,13.10
2023-03-26T08:30:26.899Z,12.90
2023-03-26T08:33:00.208Z,12.80
2023-03-26T08:35:28.631Z,12.80
2023-03-26T08:37:56.376Z,12.70
2023-03-26T08:40:50.162Z,12.70
2023-03-26T08:43:27.334Z,12.80
2023-03-26T08:46:12.547Z,13.00
2023-03-26T08:49:17.494Z,13.30
2023-03-26T08:52:03.035Z,13.50
2023-03-26T08:54:51.159Z,13.70
2023-03-26T08:58:02.890Z,13.70
2023-03-26T09:00:49.447Z,13.80
2023-03-26T09:03:49.449Z,14.00
2023-03-26T09:06:47.604Z,14.30
2023-03-26T09:09:51.160Z,14.50
2023-03-26T09:12:52.734Z,14.90
2023-03-26T09:15:45.837Z,15.40
2023-03-26T09:18:42.894Z,16.50
2023-03-26T09:21:33.985Z,18.30
2023-03-26T09:24:19.908Z,20.10
2023-03-26T09:27:22.108Z,20.70
2023-03-26T09:30:22.582Z,20.40
2023-03-26T09:33:32.357Z,19.70
2023-03-26T09:36:08.041Z,18.70
2023-03-26T09:38:46.197Z,17.70
2023-03-26T09:41:15.546Z,17.00
2023-03-26T09:44:11.305Z,16.50
2023-03-26T09:46:57.349Z,16.20
2023-03-26T09:49:38.710Z,16.00
2023-03-26T09:52:06.273Z,15.70
2023-03-26T09:54:51.925Z,15.50
2023-03-26T09:57:53.820Z,15.30
2023-03-26T10:00:40.802Z,15.10
2023-03-26T10:03:32.235Z,14.80
2023-03-26T10:06:21.971Z,14.50
2023-03-26T10:09:21.020Z,14.40
2023-03-26T10:12:02.165Z,14.30
2023-03-26T10:15:06.962Z,14.40
2023-03-26T10:17:41.207Z,15.00
2023-03-26T10:20:18.132Z,16.20
2023-03-26T10:23:00.496Z,17.10
2023-03-26T10:25:36.270Z,17.90
2023-03-26T10:28:07.041Z,18.20
2023-03-26T10:30:37.387Z,18.30
2023-03-26T10:33:27.818Z,18.00
2023-03-26T10:36:30.678Z,17.90
2023-03-26T10:39:03.693Z,17.40
2023-03-26T10:42:05.764Z,17.10
2023-03-26T10:44:48.937Z,16.90
2023-03-26T10:47:44.012Z,16.40
2023-03-26T10:50:45.923Z,15.80
2023-03-26T10:53:16.661Z,14.80
2023-03-26T10:55:50.042Z,14.20
2023-03-26T10:58:48.783Z,13.60
2023-03-26T11:01:51.727Z,13.30
2023-03-26T11:04:47.077Z,12.80
2023-03-26T11:07:27.161Z,12.50
2023-03-26T11:10:10.947Z,12.60
2023-03-26T11:12:37.919Z,12.90
2023-03-26T11:15:33.704Z,13.30
2023-03-26T11:18:19.240Z,13.80
2023-03-26T11:20:49.954Z,14.10
2023-03-26T11:23:36.994Z,14.40
2023-03-26T11:26:21.382Z,14.70
2023-03-26T11:29:04.195Z,15.10
2023-03-26T11:32:03.974Z,15.30
2023-03-26T11:34:52.401Z,15.50
2023-03-26T11:37:53.452Z,15.50
2023-03-26T11:40:35.439Z,15.50
2023-03-26T11:43:06.433Z,15.50
2023-03-26T11:45:38.134Z,15.50
2023-03-26T11:48:31.948Z,15.60
2023-03-26T11:51:10.803Z,15.40
2023-03-26T11:53:39.684Z,15.10
2023-03-26T11:56:22.745Z,14.80
2023-03-26T11:59:02.874Z,14.70
2023-03-26T12:01:56.589Z,14.70
2023-03-26T12:04:36.380Z,14.70
2023-03-26T12:07:35.127Z,14.70
2023-03-26T12:10:18.377Z,14.90
2023-03-26T12:12:47.658Z,15.10
2023-03-26T12:15:19.220Z,15.20
2023-03-26T12:17:48.080Z,15.40
2023-03-26T12:20:27.746Z,15.50
2023-03-26T12:23:09.472Z,15.40
2023-03-26T12:25:39.235Z,15.50
2023-03-26T12:28:19.889Z,15.40
2023-03-26T12:31:02.777Z,15.40
2023-03-26T12:33:35.871Z,15.50
2023-03-26T12:36:23.657Z,15.50
2023-03-26T12:39:16.648Z,15.60
2023-03-26T12:44:51.383Z,15.70
2023-03-26T12:44:58.737Z,15.80
2023-03-26T12:47:58.377Z,16.10
2023-03-26T12:50:34.718Z,16.20
2023-03-26T12:53:16.430Z,16.30
2023-03-26T12:56:01.033Z,16.20
2023-03-26T12:58:55.386Z,16.20
2023-03-26T13:01:45.181Z,16.20
2023-03-26T13:04:18.520Z,16.00
2023-03-26T13:07:01.635Z,15.90
2023-03-26T13:09:46.125Z,15.80
2023-03-26T13:12:41.303Z,15.70
2023-03-26T13:15:45.760Z,15.70
2023-03-26T13:18:37.609Z,15.70
2023-03-26T13:21:35.421Z,15.60
2023-03-26T13:24:29.145Z,15.50
2023-03-26T13:27:15.825Z,15.20
2023-03-26T13:29:57.797Z,15.10
2023-03-26T13:32:51.697Z,14.90
2023-03-26T13:36:00.208Z,14.70
2023-03-26T13:38:59.006Z,14.50
2023-03-26T13:41:47.850Z,14.50
2023-03-26T13:44:36.380Z,14.60
2023-03-26T13:47:22.372Z,14.80
2023-03-26T13:50:10.181Z,14.80
2023-03-26T13:52:44.475Z,14.90
2023-03-26T13:55:39.117Z,15.00
2023-03-26T13:58:09.285Z,15.20
2023-03-26T14:00:55.119Z,15.20
2023-03-26T14:03:43.319Z,15.20
2023-03-26T14:06:42.505Z,15.30
2023-03-26T14:09:32.460Z,15.10
2023-03-26T14:12:28.334Z,14.80
2023-03-26T14:15:04.489Z,14.60
2023-03-26T14:17:40.681Z,14.50
2023-03-26T14:20:47.743Z,14.30
2023-03-26T14:23:34.299Z,14.10
2023-03-26T14:26:08.603Z,14.00
2023-03-26T14:28:57.778Z,14.00
2023-03-26T14:32:05.951Z,14.10
2023-03-26T14:34:51.237Z,14.30
2023-03-26T14:38:00.748Z,14.20
2023-03-26T14:40:51.506Z,14.00
2023-03-26T14:43:43.659Z,13.70
2023-03-26T14:46:48.975Z,13.40
2023-03-26T14:49:25.068Z,13.30
2023-03-26T14:51:58.381Z,13.20
2023-03-26T14:54:29.366Z,13.00
2023-03-26T14:57:22.317Z,12.60
2023-03-26T15:00:07.371Z,12.30
2023-03-26T15:02:59.474Z,12.10
2023-03-26T15:05:45.934Z,12.10
2023-03-26T15:08:40.278Z,12.00
2023-03-26T15:11:25.896Z,12.10
2023-03-26T15:14:11.538Z,12.10
2023-03-26T15:17:13.574Z,11.90
2023-03-26T15:20:15.006Z,11.90
2023-03-26T15:22:55.040Z,12.00
2023-03-26T15:25:59.068Z,11.90
2023-03-26T15:28:51.406Z,11.80
2023-03-26T15:31:57.918Z,11.70
2023-03-26T15:34:41.726Z,11.60
2023-03-26T15:37:12.023Z,11.50
2023-03-26T15:40:08.203Z,11.50
2023-03-26T15:42:46.051Z,11.50
2023-03-26T15:45:23.039Z,11.30
2023-03-26T15:48:13.162Z,11.60
2023-03-26T15:51:18.968Z,11.80
2023-03-26T15:54:06.614Z,11.90
2023-03-26T15:57:24.128Z,12.10
2023-03-26T16:00:32.500Z,12.30
2023-03-26T16:03:13.943Z,12.20
2023-03-26T16:05:53.874Z,12.20
2023-03-26T16:08:40.674Z,12.30
2023-03-26T16:11:12.915Z,12.20
2023-03-26T16:13:43.584Z,12.30
2023-03-26T16:16:37.038Z,12.40
2023-03-26T16:19:20.613Z,12.40
2023-03-26T16:22:11.845Z,12.40
2023-03-26T16:24:46.974Z,12.40
2023-03-26T16:27:13.911Z,12.20
2023-03-26T16:30:21.855Z,12.00
2023-03-26T16:32:59.841Z,12.00
2023-03-26T16:36:06.292Z,12.00
2023-03-26T16:38:55.255Z,12.00
2023-03-26T16:41:29.586Z,11.80
2023-03-26T16:44:21.413Z,11.90
2023-03-26T16:47:04.006Z,11.70
2023-03-26T16:50:08.458Z,11.50
2023-03-26T16:53:05.550Z,11.40
2023-03-26T16:56:06.549Z,11.40
2023-03-26T16:58:56.428Z,11.40
2023-03-26T17:01:35.450Z,11.30
2023-03-26T17:04:23.505Z,11.10
2023-03-26T17:06:56.819Z,11.10
2023-03-26T17:10:02.474Z,11.00
2023-03-26T17:13:00.507Z,10.90
2023-03-26T17:16:04.976Z,10.80
2023-03-26T17:18:54.843Z,10.80
2023-03-26T17:21:50.609Z,10.70
2023-03-26T17:24:57.972Z,10.70
2023-03-26T17:27:50.864Z,10.60
2023-03-26T17:30:46.838Z,10.50
2023-03-26T17:33:21.549Z,10.40
2023-03-26T17:35:51.010Z,10.30
2023-03-26T17:38:18.215Z,10.20
2023-03-26T17:40:54.809Z,10.20
2023-03-26T17:43:50.434Z,10.10
2023-03-26T17:46:33.369Z,10.00
2023-03-26T17:49:17.539Z,10.00
2023-03-26T17:51:59.701Z,10.10
2023-03-26T17:54:44.437Z,10.10
2023-03-26T17:57:14.997Z,10.10
2023-03-26T17:59:45.034Z,10.10
2023-03-26T18:02:42.877Z,10.10
2023-03-26T18:05:14.841Z,10.20
2023-03-26T18:08:02.946Z,10.20
2023-03-26T18:10:52.016Z,10.10
2023-03-26T18:13:18.993Z,10.10
2023-03-26T18:16:34.205Z,10.10
2023-03-26T18:19:05.195Z,10.10
2023-03-26T18:21:40.199Z,10.00
2023-03-26T18:24:14.234Z,10.00
2023-03-26T18:26:49.202Z,9.90
2023-03-26T18:29:25.828Z,9.90
2023-03-26T18:32:04.063Z,9.90
2023-03-26T18:34:33.342Z,9.80
2023-03-26T18:37:15.142Z,9.90
2023-03-26T18:39:56.169Z,9.80
2023-03-26T18:42:25.190Z,9.90
2023-03-26T18:44:54.089Z,9.90
2023-03-26T18:47:28.477Z,10.00
2023-03-26T18:49:57.607Z,9.90
2023-03-26T18:52:29.626Z,9.90
2023-03-26T18:54:59.393Z,9.90
2023-03-26T18:57:29.416Z,9.90
2023-03-26T19:00:20.876Z,10.00
2023-03-26T19:02:51.789Z,9.90
2023-03-26T19:05:20.629Z,10.00
2023-03-26T19:07:47.856Z,9.90
2023-03-26T19:10:19.064Z,9.90
2023-03-26T19:12:46.667Z,9.90
2023-03-26T19:15:16.069Z,10.00
2023-03-26T19:17:47.141Z,9.90
2023-03-26T19:20:29.216Z,9.80
2023-03-26T19:22:59.248Z,9.70
2023-03-26T19:25:30.616Z,9.70
2023-03-26T19:27:59.968Z,9.70
2023-03-26T19:30:31.925Z,9.60
2023-03-26T19:33:14.460Z,9.60
2023-03-26T19:35:43.365Z,9.60
2023-03-26T19:38:26.380Z,9.50
2023-03-26T19:40:56.773Z,9.40
2023-03-26T19:43:28.316Z,9.40
2023-03-26T19:46:01.236Z,9.20
2023-03-26T19:48:45.676Z,9.10
2023-03-26T19:51:36.378Z,9.10
2023-03-26T19:54:16.452Z,9.00
2023-03-26T19:56:43.760Z,9.10
2023-03-26T19:59:11.686Z,8.90
2023-03-26T20:01:38.973Z,8.90
2023-03-26T20:04:10.827Z,8.80
2023-03-26T20:06:43.858Z,8.70
2023-03-26T20:09:12.982Z,8.70
2023-03-26T20:11:40.987Z,8.70
2023-03-26T20:14:26.246Z,8.70
2023-03-26T20:16:54.060Z,8.60
2023-03-26T20:19:24.198Z,8.70
2023-03-26T20:21:52.800Z,8.80
2023-03-26T20:24:22.122Z,8.80
2023-03-26T20:26:49.514Z,8.90
2023-03-26T20:29:17.512Z,8.90
2023-03-26T20:31:46.417Z,9.00
2023-03-26T20:34:23.847Z,9.00
2023-03-26T20:36:56.156Z,9.00
2023-03-26T20:39:29.298Z,9.00
2023-03-26T20:41:56.504Z,8.90
2023-03-26T20:44:27.374Z,8.90
2023-03-26T20:47:02.861Z,8.90
2023-03-26T20:49:32.547Z,8.90
2023-03-26T20:52:00.701Z,8.80
2023-03-26T20:54:30.471Z,8.80
2023-03-26T20:56:58.734Z,8.70
2023-03-26T20:59:27.717Z,8.80
2023-03-26T21:01:59.741Z,8.70
2023-03-26T21:04:27.516Z,8.70
2023-03-26T21:07:06.622Z,8.60
2023-03-26T21:09:40.090Z,8.70
2023-03-26T21:12:24.084Z,8.60
2023-03-26T21:14:52.085Z,8.60
2023-03-26T21:17:23.354Z,8.50
2023-03-26T21:19:52.218Z,8.50
2023-03-26T21:22:35.435Z,8.60
2023-03-26T21:25:06.212Z,8.60
2023-03-26T21:27:53.963Z,8.50
2023-03-26T21:30:22.420Z,8.50
2023-03-26T21:32:49.824Z,8.60
2023-03-26T21:35:18.426Z,8.60
2023-03-26T21:37:48.932Z,8.60
2023-03-26T21:40:18.642Z,8.60
2023-03-26T21:42:49.649Z,8.60
2023-03-26T21:45:18.493Z,8.70
2023-03-26T21:47:46.663Z,8.60
2023-03-26T21:50:17.667Z,8.70
2023-03-26T21:52:48.614Z,8.60
2023-03-26T21:55:22.022Z,8.60
2023-03-26T21:58:15.571Z,8.60
2023-03-26T22:01:23.447Z,8.70
2023-03-26T22:04:13.641Z,8.60
2023-03-26T22:07:23.319Z,8.60
2023-03-26T22:09:51.193Z,8.70
2023-03-26T22:12:18.886Z,8.60
2023-03-26T22:14:46.149Z,8.50
2023-03-26T22:17:17.120Z,8.40
2023-03-26T22:19:44.487Z,8.30
2023-03-26T22:22:12.583Z,8.30
2023-03-26T22:24:42.679Z,8.20
2023-03-26T22:27:13.366Z,8.30
2023-03-26T22:29:43.655Z,8.40
2023-03-26T22:32:11.414Z,8.30
2023-03-26T22:34:38.986Z,8.30
2023-03-26T22:37:06.464Z,8.40
2023-03-26T22:39:34.250Z,8.40
2023-03-26T22:42:03.780Z,8.40
2023-03-26T22:44:33.547Z,8.40
2023-03-26T22:47:01.488Z,8.50
2023-03-26T22:49:32.115Z,8.40
2023-03-26T22:51:59.167Z,8.50
2023-03-26T22:54:26.870Z,8.60
2023-03-26T22:56:55.767Z,8.50
2023-03-26T22:59:23.035Z,8.50
2023-03-26T23:01:52.230Z,8.50
2023-03-26T23:04:31.328Z,8.60
2023-03-26T23:07:03.430Z,8.50
2023-03-26T23:09:31.142Z,8.50
2023-03-26T23:11:58.677Z,8.60
2023-03-26T23:14:28.658Z,8.60
2023-03-26T23:16:59.465Z,8.60
2023-03-26T23:19:26.564Z,8.70
2023-03-26T23:21:53.789Z,8.70
2023-03-26T23:24:21.354Z,8.70
2023-03-26T23:26:51.035Z,8.60
2023-03-26T23:29:18.664Z,8.70
2023-03-26T23:31:45.963Z,8.70
2023-03-26T23:34:13.690Z,8.70
2023-03-26T23:36:42.525Z,8.80
2023-03-26T23:39:11.028Z,8.70
2023-03-26T23:41:38.675Z,8.70
2023-03-26T23:44:05.973Z,8.80
2023-03-26T23:46:33.380Z,8.70
2023-03-26T23:49:03.859Z,8.70
2023-03-26T23:51:32.034Z,8.70
2023-03-26T23:54:00.293Z,8.80
2023-03-26T23:56:30.371Z,8.70
2023-03-26T23:58:59.283Z,8.70
